Time;durP1;ratioP1;P1;durP2;ratioP2;P2;SDS_P1;SDS_P2;PMS_P1;PMS_P2;Temp;Humidity;BMP_temperature;BMP_pressure;BME280_temperature;BME280_humidity;BME280_pressure;Samples;Min_cycle;Max_cycle;Signal;HPM_P1;HPM_P2
2022/01/10 00:01:46;;;;;;;11.45;3.88;;;;;;;1.16;85.95;100189.50;6148390;23;20025;-80
2022/01/10 00:04:56;;;;;;;13.38;4.88;;;;;;;1.32;85.74;100192.63;6150838;23;20028;-79
2022/01/10 00:08:04;;;;;;;15.75;4.38;;;;;;;1.53;84.92;100196.53;6150957;23;20021;-80
2022/01/10 00:11:08;;;;;;;14.23;4.80;;;;;;;1.57;84.88;100200.72;6149451;23;20452;-79
2022/01/10 00:14:12;;;;;;;14.10;5.35;;;;;;;1.68;84.31;100204.81;6150574;23;20024;-79
2022/01/10 00:17:15;;;;;;;17.45;6.32;;;;;;;1.72;84.34;100206.41;6149337;23;20468;-79
2022/01/10 00:20:20;;;;;;;;;;;;;;;1.78;84.05;100209.72;6150108;23;20024;-80
2022/01/10 00:23:24;;;;;;;17.02;5.32;;;;;;;1.82;83.47;100218.25;6195991;23;19961;-80
2022/01/10 00:26:31;;;;;;;19.55;6.97;;;;;;;1.81;83.78;100216.53;6206136;23;20020;-80
2022/01/10 00:29:34;;;;;;;17.65;5.88;;;;;;;1.73;83.82;100223.59;6208828;23;20107;-80
2022/01/10 00:32:43;;;;;;;20.30;4.78;;;;;;;1.35;84.86;100227.78;6208490;23;20024;-79
2022/01/10 00:35:47;;;;;;;13.43;5.18;;;;;;;1.26;84.81;100228.81;6190860;23;20023;-80
2022/01/10 00:38:51;;;;;;;12.18;4.53;;;;;;;1.20;85.54;100240.97;6191647;23;20027;-80
2022/01/10 00:41:58;;;;;;;17.88;5.40;;;;;;;1.34;85.24;100241.53;6191142;23;20059;-80
2022/01/10 00:45:12;;;;;;;9.90;3.92;;;;;;;1.25;85.20;100246.88;6208918;23;20448;-80
2022/01/10 00:48:16;;;;;;;10.32;3.72;;;;;;;1.31;84.87;100251.94;6191343;23;20079;-80
2022/01/10 00:51:23;;;;;;;12.32;4.72;;;;;;;1.28;86.00;100251.97;6191076;23;20751;-79
2022/01/10 00:54:26;;;;;;;12.18;5.13;;;;;;;1.47;85.40;100250.75;6208572;23;20348;-79
2022/01/10 00:57:29;;;;;;;20.63;6.82;;;;;;;1.55;85.28;100260.91;6173192;23;20070;-80
2022/01/10 01:00:34;;;;;;;8.85;4.68;;;;;;;1.55;85.43;100261.75;6208129;23;20031;-80
2022/01/10 01:03:38;;;;;;;13.70;5.93;;;;;;;1.59;84.68;100271.09;6189926;23;20023;-80
2022/01/10 01:06:42;;;;;;;13.77;7.32;;;;;;;1.66;84.62;100263.25;6191544;23;20031;-79
2022/01/10 01:09:53;;;;;;;11.73;5.07;;;;;;;1.71;84.38;100267.44;6191295;23;20355;-80
2022/01/10 01:13:09;;;;;;;16.60;4.85;;;;;;;1.58;83.84;100282.28;6208947;23;20100;-80
2022/01/10 01:16:17;;;;;;;9.55;4.45;;;;;;;1.29;85.41;100287.16;6166636;23;20467;-79
2022/01/10 01:25:48;;;;;;;10.00;4.13;;;;;;;0.91;86.99;100304.94;6207160;23;19918;-80
2022/01/10 01:28:52;;;;;;;;;;;;;;;1.22;86.19;100309.59;6189918;23;20070;-80
2022/01/10 01:31:56;;;;;;;6.95;2.60;;;;;;;1.46;85.70;100310.03;6190462;23;19923;-80
2022/01/10 01:35:05;;;;;;;10.95;3.50;;;;;;;1.44;85.92;100314.38;6208941;23;20079;-79
2022/01/10 01:38:08;;;;;;;15.40;4.57;;;;;;;1.41;85.87;100324.75;6209348;23;20074;-80
2022/01/10 01:42:01;;;;;;;13.18;4.00;;;;;;;1.49;85.72;100323.69;6209273;23;20517;-80
2022/01/10 01:44:36;;;;;;;7.78;3.10;;;;;;;1.41;85.78;100329.88;6189535;23;20110;-80
2022/01/10 01:47:43;;;;;;;9.48;3.10;;;;;;;1.63;85.57;100326.88;6172883;23;20506;-80
2022/01/10 01:51:01;;;;;;;6.53;2.85;;;;;;;1.73;85.33;100337.03;6190521;23;20079;-80
2022/01/10 01:54:05;;;;;;;7.32;2.90;;;;;;;1.78;84.71;100341.19;6174536;23;20054;-80
2022/01/10 01:57:09;;;;;;;10.02;3.42;;;;;;;1.79;84.67;100350.66;6190937;23;20048;-80
2022/01/10 02:00:13;;;;;;;7.10;3.20;;;;;;;1.89;84.29;100359.06;6192808;23;20024;-80
2022/01/10 02:03:22;;;;;;;7.70;3.20;;;;;;;1.93;84.41;100367.56;6210677;23;20023;-80
2022/01/10 02:06:33;;;;;;;15.43;4.85;;;;;;;1.80;84.58;100366.94;6191682;23;20023;-80
2022/01/10 02:09:37;;;;;;;14.27;3.60;;;;;;;1.92;84.12;100369.31;6209792;23;20074;-80
2022/01/10 02:12:40;;;;;;;10.75;4.03;;;;;;;1.93;84.20;100381.31;6210164;23;20075;-79
2022/01/10 02:15:58;;;;;;;11.75;4.93;;;;;;;1.92;84.30;100377.03;6175285;23;20039;-80
2022/01/10 02:19:04;;;;;;;10.52;4.25;;;;;;;1.93;83.95;100381.31;6210062;23;20028;-79
2022/01/10 02:22:07;;;;;;;18.02;6.38;;;;;;;1.83;84.35;100384.94;6209784;23;20027;-80
2022/01/10 02:25:22;;;;;;;15.68;5.75;;;;;;;1.85;84.82;100388.31;6191624;23;20051;-80
2022/01/10 02:28:27;;;;;;;16.75;4.85;;;;;;;1.97;84.09;100388.09;6192743;23;20035;-79
2022/01/10 02:31:34;;;;;;;9.98;4.88;;;;;;;1.95;83.69;100397.59;6211055;23;20387;-80
2022/01/10 02:34:40;;;;;;;11.77;4.38;;;;;;;1.99;84.01;100396.66;6192809;23;20062;-80
2022/01/10 02:37:43;;;;;;;;;;;;;;;1.97;84.34;100413.03;6192034;23;20058;-80
2022/01/10 02:40:49;;;;;;;13.07;4.03;;;;;;;1.97;84.48;100419.03;6190252;23;19914;-80
2022/01/10 02:43:53;;;;;;;12.95;4.25;;;;;;;1.94;84.57;100419.09;6174304;23;20419;-80
2022/01/10 02:46:57;;;;;;;12.93;4.90;;;;;;;2.00;84.67;100420.72;6171403;23;20538;-80
2022/01/10 02:50:12;;;;;;;11.95;4.97;;;;;;;1.98;84.67;100430.19;6209630;23;20467;-80
2022/01/10 02:53:19;;;;;;;17.33;6.07;;;;;;;1.74;85.31;100428.94;6190795;23;20042;-80
2022/01/10 02:56:26;;;;;;;14.15;4.38;;;;;;;1.67;85.80;100437.66;6210095;23;20518;-80
2022/01/10 02:59:30;;;;;;;13.45;4.32;;;;;;;1.78;85.47;100443.47;6174378;23;20517;-80
2022/01/10 03:02:35;;;;;;;7.57;3.50;;;;;;;1.75;85.29;100448.66;6191623;23;20395;-80
2022/01/10 03:05:38;;;;;;;12.20;4.30;;;;;;;1.92;85.28;100456.13;6174746;23;20344;-79
2022/01/10 03:08:41;;;;;;;8.88;3.67;;;;;;;1.95;85.02;100462.06;6191541;23;20039;-79
2022/01/10 03:11:46;;;;;;;10.38;3.95;;;;;;;1.96;84.88;100471.50;6192959;23;20079;-79
2022/01/10 03:14:50;;;;;;;9.48;3.70;;;;;;;2.05;84.75;100473.06;6191743;23;20590;-79
2022/01/10 03:17:54;;;;;;;9.30;3.78;;;;;;;2.04;84.69;100479.09;6209797;23;20402;-80
2022/01/10 03:20:58;;;;;;;10.35;3.67;;;;;;;2.05;84.39;100484.25;6174583;23;20083;-80
2022/01/10 03:24:02;;;;;;;14.10;4.85;;;;;;;2.01;84.72;100492.91;6150228;23;20048;-80
2022/01/10 03:27:06;;;;;;;9.85;4.40;;;;;;;2.07;84.59;100497.97;6150034;23;20107;-80
2022/01/10 03:30:10;;;;;;;10.38;4.47;;;;;;;2.09;84.48;100501.34;6132813;23;20388;-80
2022/01/10 03:33:15;;;;;;;13.50;5.38;;;;;;;2.12;84.42;100508.19;6149726;23;20269;-80
2022/01/10 03:36:19;;;;;;;;;;;;;;;2.17;84.25;100508.97;6165988;23;20044;-79
2022/01/10 03:39:25;;;;;;;13.18;4.95;;;;;;;2.12;84.44;100515.09;6149262;23;19915;-79
2022/01/10 03:42:29;;;;;;;10.43;5.03;;;;;;;2.07;84.52;100516.03;6148682;23;20028;-80
2022/01/10 03:45:33;;;;;;;12.20;4.88;;;;;;;2.06;84.54;100522.03;6166098;23;20024;-80
2022/01/10 03:48:37;;;;;;;13.25;6.00;;;;;;;2.01;84.54;100523.88;6148524;23;20079;-80
2022/01/10 03:52:05;;;;;;;;;;;;;;;2.07;84.61;100533.19;6149421;23;20074;-80
2022/01/10 03:55:09;;;;;;;12.35;4.93;;;;;;;2.08;84.73;100534.94;6148780;23;20039;-80
2022/01/10 03:58:13;;;;;;;12.38;5.03;;;;;;;2.15;84.68;100531.34;6148606;23;20093;-80
2022/01/10 04:01:17;;;;;;;8.98;3.85;;;;;;;2.15;84.47;100539.09;6165903;23;20054;-80
2022/01/10 04:04:25;;;;;;;9.70;4.70;;;;;;;2.04;84.38;100539.28;6148175;23;20423;-80
2022/01/10 04:07:29;;;;;;;9.15;3.90;;;;;;;2.03;84.41;100542.72;6150040;23;20055;-79
2022/01/10 04:10:32;;;;;;;11.25;4.00;;;;;;;2.01;84.92;100549.66;6166232;23;20040;-79
2022/01/10 04:13:36;;;;;;;9.45;4.18;;;;;;;1.94;84.78;100557.50;6149929;23;20230;-79
2022/01/10 04:16:39;;;;;;;;;;;;;;;1.91;85.10;100566.13;6131841;23;20436;-79
2022/01/10 04:19:43;;;;;;;;;;;;;;;1.91;84.90;100560.13;6148924;23;19920;-80
2022/01/10 04:22:46;;;;;;;10.25;3.95;;;;;;;1.92;85.14;100565.28;6179095;23;19919;-80
2022/01/10 04:25:50;;;;;;;10.95;4.55;;;;;;;2.01;84.74;100575.44;6210314;23;20463;-80
2022/01/10 04:28:55;;;;;;;7.45;4.68;;;;;;;2.01;84.88;100578.03;6208972;23;20023;-79
2022/01/10 04:32:03;;;;;;;10.20;4.85;;;;;;;1.82;84.95;100584.34;6191331;23;20095;-80
2022/01/10 04:35:08;;;;;;;10.93;4.10;;;;;;;1.59;86.20;100600.97;6190904;23;20031;-80
2022/01/10 04:38:12;;;;;;;9.95;4.70;;;;;;;1.62;86.66;100600.09;6190625;23;20024;-79
2022/01/10 04:41:15;;;;;;;;;;;;;;;1.66;86.65;100604.34;6209085;23;20023;-79
2022/01/10 04:44:19;;;;;;;8.75;4.70;;;;;;;1.66;86.61;100608.63;6190698;23;19955;-79
2022/01/10 04:47:23;;;;;;;10.95;4.95;;;;;;;1.70;86.85;100615.47;6189889;23;20024;-79
2022/01/10 04:53:34;;;;;;;11.13;5.05;;;;;;;1.95;85.81;100626.25;6208871;23;20067;-80
2022/01/10 04:56:37;;;;;;;13.60;4.20;;;;;;;1.92;85.72;100634.03;6209704;23;20028;-80
2022/01/10 04:59:41;;;;;;;9.15;4.70;;;;;;;1.87;85.61;100634.09;6190800;23;20095;-80
2022/01/10 05:02:48;;;;;;;10.40;3.47;;;;;;;1.75;85.80;100640.28;6189097;23;20075;-80
2022/01/10 05:05:54;;;;;;;10.43;3.22;;;;;;;1.58;85.68;100648.25;6209047;23;20023;-80
2022/01/10 05:08:58;;;;;;;7.10;3.33;;;;;;;1.49;85.60;100657.81;6190272;23;20347;-81
2022/01/10 05:12:16;;;;;;;7.60;2.97;;;;;;;1.42;85.49;100653.63;6190016;23;20027;-81
2022/01/10 05:20:18;;;;;;;7.28;3.13;;;;;;;1.54;85.19;100662.06;6203758;23;20020;-80
2022/01/10 05:23:23;;;;;;;5.95;3.03;;;;;;;1.60;84.44;100672.28;6207581;23;20069;-81
2022/01/10 05:26:26;;;;;;;5.70;2.42;;;;;;;1.52;84.56;100681.81;6189820;23;20096;-81
2022/01/10 05:29:30;;;;;;;6.55;2.40;;;;;;;1.55;84.50;100689.53;6190398;23;20064;-81
2022/01/10 05:32:35;;;;;;;7.65;3.00;;;;;;;1.56;84.65;100691.25;6189427;23;20023;-80
2022/01/10 05:36:05;;;;;;;8.82;2.85;;;;;;;1.69;84.06;100698.78;6191113;23;20648;-80
2022/01/10 05:39:09;;;;;;;8.13;2.90;;;;;;;1.74;84.23;100709.91;6191179;23;20059;-81
2022/01/10 05:42:14;;;;;;;7.82;3.80;;;;;;;1.66;85.11;100706.56;6206849;23;20027;-81
2022/01/10 05:45:18;;;;;;;7.93;4.47;;;;;;;1.55;85.54;100723.03;6189895;23;20096;-80
2022/01/10 05:48:26;;;;;;;7.30;3.60;;;;;;;1.52;86.21;100735.94;6190167;23;20059;-80
2022/01/10 05:51:36;;;;;;;7.95;4.07;;;;;;;1.51;86.27;100734.25;6189613;23;20340;-81
2022/01/10 05:54:58;;;;;;;7.60;4.03;;;;;;;1.44;86.34;100737.78;6178093;23;20086;-81
2022/01/10 05:58:05;;;;;;;9.23;3.65;;;;;;;1.26;87.20;100753.44;6207467;23;20090;-81
2022/01/10 06:01:09;;;;;;;15.48;4.38;;;;;;;1.01;88.17;100757.97;6188212;23;20027;-81
2022/01/10 06:04:35;;;;;;;15.77;4.55;;;;;;;0.93;88.88;100763.19;6173055;23;20352;-81
2022/01/10 06:07:51;;;;;;;14.05;5.05;;;;;;;1.05;88.92;100770.78;6172990;23;20023;-82
2022/01/10 06:10:55;;;;;;;9.48;5.15;;;;;;;1.14;88.86;100780.16;6207812;23;20074;-81
2022/01/10 06:14:25;;;;;;;12.77;4.38;;;;;;;0.79;89.00;100793.34;6206340;23;20077;-81
2022/01/10 06:17:29;;;;;;;10.25;4.13;;;;;;;1.00;88.89;100785.44;6190549;23;20035;-81
2022/01/10 06:20:59;;;;;;;19.13;4.35;;;;;;;0.90;89.09;100792.38;6207433;23;20023;-85
2022/01/10 06:24:04;;;;;;;10.80;4.47;;;;;;;1.10;88.67;100797.34;6189013;23;20027;-80
2022/01/10 06:27:08;;;;;;;19.98;3.58;;;;;;;1.24;88.16;100802.38;6190029;23;20074;-81
2022/01/10 06:30:13;;;;;;;46.85;4.72;;;;;;;0.83;88.54;100805.31;6189998;23;20499;-82
2022/01/10 06:33:20;;;;;;;17.00;4.47;;;;;;;1.05;88.51;100818.84;6190066;23;20027;-81
2022/01/10 06:36:25;;;;;;;21.40;4.18;;;;;;;1.20;87.92;100821.31;6191206;23;20555;-81
2022/01/10 06:39:31;;;;;;;20.83;3.60;;;;;;;1.12;87.70;100831.69;6209417;23;20490;-81
2022/01/10 06:42:37;;;;;;;51.40;4.93;;;;;;;0.92;88.63;100836.97;6174263;23;20078;-81
2022/01/10 06:45:42;;;;;;;26.65;3.78;;;;;;;0.95;88.62;100846.41;6173983;23;20023;-81
2022/01/10 06:48:45;;;;;;;;;;;;;;;0.81;89.41;100848.25;6176985;23;20114;-81
2022/01/10 06:51:49;;;;;;;;;;;;;;;0.75;89.74;100853.44;6192771;23;20334;-81
2022/01/10 06:54:53;;;;;;;164.02;7.82;;;;;;;0.49;90.24;100858.75;6206978;23;20327;-81
2022/01/10 06:57:56;;;;;;;60.05;4.57;;;;;;;0.46;90.17;100867.31;6209070;23;20027;-81
2022/01/10 07:01:03;;;;;;;28.83;3.47;;;;;;;0.55;89.91;100867.28;6191085;23;20071;-81
2022/01/10 07:04:09;;;;;;;103.63;5.85;;;;;;;0.56;89.96;100876.69;6191430;23;20108;-81
2022/01/10 07:07:15;;;;;;;17.77;4.88;;;;;;;0.79;89.57;100889.41;6208304;23;20023;-82
2022/01/10 07:10:22;;;;;;;27.95;6.68;;;;;;;0.78;89.59;100890.28;6190689;23;20343;-82
2022/01/10 07:13:26;;;;;;;38.60;7.63;;;;;;;0.62;89.25;100886.97;6208688;23;20024;-82
2022/01/10 07:16:32;;;;;;;83.38;5.22;;;;;;;0.48;89.08;100901.63;6190158;23;20055;-80
2022/01/10 07:20:05;;;;;;;49.60;4.90;;;;;;;0.31;89.76;100903.41;6199862;23;20383;-80
2022/01/10 07:23:13;;;;;;;60.25;7.45;;;;;;;0.43;89.41;100914.50;6191669;23;20083;-81
2022/01/10 07:26:16;;;;;;;27.35;6.03;;;;;;;0.72;89.15;100920.38;6209433;23;20032;-81
2022/01/10 07:29:20;;;;;;;41.15;5.10;;;;;;;0.92;88.42;100931.38;6191811;23;20039;-81
2022/01/10 07:32:29;;;;;;;39.22;3.42;;;;;;;0.98;87.77;100936.50;6210416;23;20023;-81
2022/01/10 07:35:32;;;;;;;21.48;2.72;;;;;;;0.92;87.36;100944.25;6191105;23;20023;-81
2022/01/10 07:38:36;;;;;;;14.02;2.80;;;;;;;0.85;87.13;100952.91;6208310;23;20066;-81
2022/01/10 07:41:39;;;;;;;6.72;2.50;;;;;;;0.81;86.28;100957.22;6208234;23;20035;-81
2022/01/10 07:44:49;;;;;;;21.42;2.90;;;;;;;0.92;85.74;100959.72;6169420;23;20048;-81
2022/01/10 07:47:53;;;;;;;14.43;2.72;;;;;;;0.93;85.78;100969.16;6172151;23;20027;-81
2022/01/10 07:50:57;;;;;;;25.30;3.35;;;;;;;0.93;86.70;100976.91;6210539;23;20433;-81
2022/01/10 07:54:00;;;;;;;;;;;;;;;1.08;86.77;100978.50;6210395;23;20256;-81
2022/01/10 07:57:08;;;;;;;32.53;3.57;;;;;;;1.05;86.50;100992.25;6210262;23;19958;-80
2022/01/10 08:00:12;;;;;;;28.15;3.95;;;;;;;1.06;86.47;101006.00;6192883;23;20042;-79
2022/01/10 08:03:16;;;;;;;32.47;4.38;;;;;;;1.05;87.04;101007.69;6210084;23;20027;-80
2022/01/10 08:06:24;;;;;;;27.67;4.32;;;;;;;1.13;87.17;101011.09;6208980;23;20024;-81
2022/01/10 08:09:28;;;;;;;19.23;4.13;;;;;;;1.05;86.91;101018.00;6174400;23;20026;-81
2022/01/10 08:12:32;;;;;;;14.13;4.80;;;;;;;1.11;87.15;101024.84;6192610;23;20057;-81
2022/01/10 08:16:04;;;;;;;32.95;8.93;;;;;;;1.03;87.48;101032.63;6210393;23;20511;-80
2022/01/10 08:19:10;;;;;;;33.20;7.72;;;;;;;1.03;87.02;101040.34;6209346;23;20063;-81
2022/01/10 08:22:13;;;;;;;15.00;6.00;;;;;;;0.45;88.62;101041.41;6208720;23;20031;-81
2022/01/10 08:25:17;;;;;;;;;;;;;;;0.62;89.06;101046.50;6209895;23;20102;-81
2022/01/10 08:28:30;;;;;;;8.95;4.85;;;;;;;0.37;89.98;101050.84;6208062;23;20358;-81
2022/01/10 08:31:34;;;;;;;6.95;4.32;;;;;;;0.27;90.31;101064.59;6208520;23;20051;-81
2022/01/10 08:34:38;;;;;;;10.88;6.15;;;;;;;0.39;90.23;101068.88;6209524;23;20027;-78
2022/01/10 08:37:41;;;;;;;11.93;5.15;;;;;;;0.41;90.06;101075.72;6209883;23;20399;-78
2022/01/10 08:40:44;;;;;;;10.20;5.10;;;;;;;0.81;89.49;101090.22;6210049;23;20463;-78
2022/01/10 08:43:48;;;;;;;;;;;;;;;0.41;90.54;101098.00;6208980;23;20765;-78
2022/01/10 08:46:54;;;;;;;16.35;8.95;;;;;;;0.57;90.23;101110.00;6209512;23;19915;-78
2022/01/10 08:49:57;;;;;;;14.32;9.40;;;;;;;0.69;89.26;101104.81;6205265;23;20188;-78
2022/01/10 08:53:03;;;;;;;9.35;5.32;;;;;;;0.87;88.37;101105.66;6207711;23;20054;-78
2022/01/10 08:56:07;;;;;;;12.80;7.25;;;;;;;0.76;88.66;101122.81;6209811;23;20027;-81
2022/01/10 08:59:10;;;;;;;19.67;13.75;;;;;;;0.91;89.01;101122.78;6209501;23;20375;-81
2022/01/10 09:02:13;;;;;;;13.70;7.25;;;;;;;0.93;89.09;101126.22;6209950;23;20497;-80
2022/01/10 09:05:46;;;;;;;19.83;12.68;;;;;;;0.63;90.35;101135.72;6208179;23;20035;-82
2022/01/10 09:09:09;;;;;;;19.38;11.52;;;;;;;0.75;90.51;101141.72;6194520;23;20024;-79
2022/01/10 09:12:12;;;;;;;18.33;9.48;;;;;;;0.69;90.11;101146.00;6210008;23;20023;-81
2022/01/10 09:15:17;;;;;;;21.75;13.07;;;;;;;0.97;89.45;101148.53;6209209;23;20068;-81
2022/01/10 09:18:23;;;;;;;13.93;8.23;;;;;;;0.82;89.92;101148.56;6208603;23;20399;-82
2022/01/10 09:21:29;;;;;;;14.20;7.43;;;;;;;0.63;90.96;101163.16;6209085;23;20036;-78
2022/01/10 09:24:35;;;;;;;12.55;8.43;;;;;;;0.50;91.58;101172.63;6208501;23;20027;-79
2022/01/10 09:28:08;;;;;;;12.85;7.93;;;;;;;0.66;91.84;101174.31;6209487;23;20344;-76
2022/01/10 09:31:12;;;;;;;15.38;8.75;;;;;;;0.96;90.52;101176.84;6178169;23;20032;-63
2022/01/10 09:34:16;;;;;;;12.50;7.18;;;;;;;1.21;89.38;101177.63;6160200;23;20096;-63
2022/01/10 09:37:19;;;;;;;14.88;8.32;;;;;;;1.24;88.61;101177.63;6160289;23;20532;-63
2022/01/10 09:40:23;;;;;;;14.80;9.98;;;;;;;1.31;88.69;101185.34;6176405;23;20537;-63
2022/01/10 09:43:26;;;;;;;13.68;7.95;;;;;;;1.52;87.50;101183.53;6177908;23;20362;-63
2022/01/10 09:46:30;;;;;;;;;;;;;;;1.61;86.59;101189.50;6177830;23;20023;-63
2022/01/10 09:49:33;;;;;;;;;;;;;;;1.66;86.89;101197.22;6179211;23;19962;-63
2022/01/10 09:52:39;;;;;;;11.57;6.10;;;;;;;1.91;86.38;101205.66;6178864;23;20437;-63
2022/01/10 09:55:43;;;;;;;9.13;6.32;;;;;;;2.08;85.35;101205.59;6178738;23;20032;-63
2022/01/10 09:58:47;;;;;;;15.43;7.85;;;;;;;2.01;85.20;101209.03;6178174;23;20031;-63
2022/01/10 10:01:50;;;;;;;;;;;;;;;2.15;85.18;101216.72;6174397;23;20100;-63
2022/01/10 10:04:53;;;;;;;12.65;6.35;;;;;;;2.22;84.44;101223.53;6177975;23;19914;-64
2022/01/10 10:07:57;;;;;;;8.88;5.45;;;;;;;2.34;84.62;101228.63;6177028;23;20520;-63
2022/01/10 10:11:00;;;;;;;13.30;6.75;;;;;;;2.43;83.94;101241.47;6178960;23;20028;-63
2022/01/10 10:14:05;;;;;;;12.25;6.80;;;;;;;2.47;83.82;101232.81;6180166;23;20059;-63
2022/01/10 10:17:14;;;;;;;11.23;7.85;;;;;;;2.53;83.76;101239.66;6178165;23;20510;-63
2022/01/10 10:20:21;;;;;;;11.85;6.68;;;;;;;2.56;83.40;101240.50;6179944;23;20024;-63
2022/01/10 10:23:30;;;;;;;16.38;8.05;;;;;;;2.54;83.05;101238.78;6179499;23;20140;-63
2022/01/10 10:26:34;;;;;;;14.65;8.10;;;;;;;2.38;83.86;101245.78;6179256;23;20108;-63
2022/01/10 10:29:38;;;;;;;11.88;6.68;;;;;;;2.46;84.98;101251.75;6159742;23;20476;-64
2022/01/10 10:32:42;;;;;;;12.90;6.38;;;;;;;2.62;84.82;101249.06;6149238;23;20490;-64
2022/01/10 10:35:55;;;;;;;12.00;6.38;;;;;;;2.67;84.26;101260.19;6148584;23;20060;-63
2022/01/10 10:39:03;;;;;;;10.93;6.53;;;;;;;2.70;84.25;101267.94;6165284;23;20039;-63
2022/01/10 10:42:09;;;;;;;9.18;6.05;;;;;;;2.74;84.02;101275.66;6148504;23;20075;-64
2022/01/10 10:45:13;;;;;;;10.55;5.72;;;;;;;2.82;84.23;101273.00;6149392;23;20036;-63
2022/01/10 10:48:17;;;;;;;10.57;6.00;;;;;;;2.83;83.91;101282.44;6150517;23;20020;-63
2022/01/10 10:51:20;;;;;;;13.07;6.80;;;;;;;2.94;83.46;101282.38;6150988;23;20024;-63
2022/01/10 10:54:24;;;;;;;13.90;8.05;;;;;;;2.96;82.78;101288.38;6151286;23;20076;-63
2022/01/10 10:57:27;;;;;;;20.35;12.73;;;;;;;2.74;82.73;101292.84;6166981;23;20409;-63
2022/01/10 11:00:31;;;;;;;21.50;13.32;;;;;;;2.79;82.99;101299.69;6167225;23;20481;-63
2022/01/10 11:03:35;;;;;;;18.20;9.85;;;;;;;2.34;82.77;101306.03;6166912;23;20091;-63
2022/01/10 11:06:42;;;;;;;24.38;14.65;;;;;;;2.31;83.05;101313.81;6164987;23;20129;-63
2022/01/10 11:09:46;;;;;;;21.65;10.55;;;;;;;1.95;83.57;101310.53;6150207;23;20088;-63
2022/01/10 11:12:55;;;;;;;21.60;9.05;;;;;;;1.67;84.78;101309.78;6150862;23;20033;-63
2022/01/10 11:15:59;;;;;;;22.92;11.48;;;;;;;1.80;85.49;101319.19;6150736;23;20605;-63
2022/01/10 11:19:11;;;;;;;23.35;9.88;;;;;;;2.21;84.63;101319.88;6150043;23;20419;-63
2022/01/10 11:22:16;;;;;;;17.88;9.95;;;;;;;2.52;83.60;101331.75;6166899;23;20083;-63
2022/01/10 11:25:22;;;;;;;26.13;14.00;;;;;;;2.51;82.56;101337.75;6149504;23;20079;-63
2022/01/10 11:28:28;;;;;;;19.00;12.15;;;;;;;2.44;81.94;101343.84;6149902;23;20021;-62
2022/01/10 11:31:31;;;;;;;17.00;9.95;;;;;;;2.41;82.93;101343.84;6151151;23;20028;-62
2022/01/10 11:34:34;;;;;;;;;;;;;;;2.53;83.08;101342.94;6150511;23;20050;-62
2022/01/10 11:37:38;;;;;;;26.70;14.70;;;;;;;2.31;82.69;101348.19;6149568;23;19958;-62
2022/01/10 11:40:42;;;;;;;19.75;13.15;;;;;;;2.46;82.59;101356.75;6149651;23;20522;-63
2022/01/10 11:43:51;;;;;;;25.98;16.58;;;;;;;2.39;82.27;101355.88;6150161;23;20400;-62
2022/01/10 11:46:58;;;;;;;17.38;9.45;;;;;;;2.61;81.94;101360.94;6149879;23;20072;-63
2022/01/10 11:50:28;;;;;;;14.60;7.97;;;;;;;2.64;81.04;101353.19;6150161;23;20031;-63
2022/01/10 11:53:32;;;;;;;17.17;9.55;;;;;;;2.91;80.75;101349.56;6147351;23;20413;-63
2022/01/10 11:56:38;;;;;;;19.58;9.55;;;;;;;2.93;80.76;101353.81;6149118;23;20178;-63
2022/01/10 11:59:45;;;;;;;16.40;8.38;;;;;;;2.79;81.35;101355.66;6165428;23;20023;-63
2022/01/10 12:02:48;;;;;;;14.05;7.22;;;;;;;2.77;80.47;101357.38;6147225;23;20040;-62
2022/01/10 12:05:52;;;;;;;;;;;;;;;2.88;81.19;101354.75;6148957;23;20067;-62
2022/01/10 12:08:59;;;;;;;19.25;7.65;;;;;;;2.85;81.02;101365.09;6149476;23;20007;-63
2022/01/10 12:12:04;;;;;;;16.95;7.57;;;;;;;3.12;80.23;101358.84;6150064;23;20360;-63
2022/01/10 12:15:07;;;;;;;22.27;9.65;;;;;;;2.92;80.51;101364.19;6149091;23;20087;-63
2022/01/10 12:18:13;;;;;;;18.98;9.70;;;;;;;2.76;81.38;101366.00;6148854;23;20075;-63
2022/01/10 12:21:17;;;;;;;16.15;8.85;;;;;;;2.94;81.02;101355.56;6149223;23;20025;-63
2022/01/10 12:24:20;;;;;;;;;;;;;;;3.07;80.70;101360.63;6165989;23;20028;-63
2022/01/10 12:27:24;;;;;;;;;;;;;;;3.23;80.99;101362.22;6149749;23;19916;-63
2022/01/10 12:30:29;;;;;;;19.73;8.45;;;;;;;2.99;80.17;101369.28;6149502;23;19940;-63
2022/01/10 12:33:33;;;;;;;15.30;8.48;;;;;;;2.87;81.90;101374.56;6165953;23;20087;-63
2022/01/10 12:36:37;;;;;;;;;;;;;;;3.09;80.97;101369.22;6147690;23;20490;-63
2022/01/10 12:39:41;;;;;;;19.45;10.40;;;;;;;3.03;81.44;101381.34;6149033;23;20291;-63
2022/01/10 12:42:49;;;;;;;18.83;9.30;;;;;;;2.95;81.16;101383.09;6147781;23;20028;-64
2022/01/10 12:45:53;;;;;;;12.93;6.57;;;;;;;2.83;82.04;101390.06;6148322;23;20025;-63
2022/01/10 12:48:56;;;;;;;16.17;7.60;;;;;;;3.10;81.81;101397.66;6164537;23;20060;-63
2022/01/10 12:52:00;;;;;;;15.25;9.20;;;;;;;2.89;81.17;101413.28;6149066;23;20040;-63
2022/01/10 12:55:04;;;;;;;;;;;;;;;3.06;80.97;101415.75;6149097;23;20080;-63
2022/01/10 12:58:07;;;;;;;17.77;9.98;;;;;;;3.16;80.21;101418.28;6149298;23;20301;-63
2022/01/10 13:01:12;;;;;;;15.63;7.82;;;;;;;3.11;80.96;101420.03;6148792;23;20543;-63
2022/01/10 13:04:21;;;;;;;16.83;9.63;;;;;;;3.03;80.91;101427.84;6148416;23;20024;-61
2022/01/10 13:07:24;;;;;;;18.40;9.75;;;;;;;3.20;80.91;101434.63;6148021;23;20056;-62
2022/01/10 13:10:34;;;;;;;;;;;;;;;3.17;80.59;101429.47;6149828;23;20048;-62
2022/01/10 13:13:39;;;;;;;16.17;7.82;;;;;;;3.32;80.12;101428.47;6148970;23;19963;-63
2022/01/10 13:16:44;;;;;;;15.18;7.57;;;;;;;3.28;79.92;101435.41;6147043;23;20044;-63
2022/01/10 13:19:59;;;;;;;27.23;14.02;;;;;;;3.28;80.05;101444.88;6148774;23;20151;-62
2022/01/10 13:23:08;;;;;;;17.08;8.43;;;;;;;3.12;79.97;101451.88;6164618;23;20067;-63
2022/01/10 13:26:12;;;;;;;19.48;11.02;;;;;;;3.14;80.37;101457.91;6148632;23;20104;-63
2022/01/10 13:29:41;;;;;;;15.45;6.85;;;;;;;3.00;80.51;101464.03;6148599;23;20032;-63
2022/01/10 13:32:46;;;;;;;14.32;7.10;;;;;;;3.07;80.30;101467.44;6149255;23;20120;-63
2022/01/10 13:35:57;;;;;;;15.10;7.00;;;;;;;3.06;80.01;101470.88;6148672;23;20070;-63
2022/01/10 13:39:00;;;;;;;16.30;7.35;;;;;;;3.09;80.03;101472.56;6148563;23;20466;-63
2022/01/10 13:42:06;;;;;;;13.35;6.35;;;;;;;3.29;79.45;101470.75;6148694;23;20035;-63
2022/01/10 13:49:28;;;;;;;20.27;7.97;;;;;;;3.63;78.83;101480.81;6145630;23;20040;-63
2022/01/10 13:52:33;;;;;;;16.58;7.53;;;;;;;3.62;78.98;101479.09;6150196;23;20028;-63
2022/01/10 13:55:39;;;;;;;14.90;7.65;;;;;;;3.53;78.75;101485.19;6149697;23;20028;-63
2022/01/10 13:58:50;;;;;;;16.40;7.22;;;;;;;3.70;78.43;101485.94;6149135;23;20093;-65
2022/01/10 14:01:54;;;;;;;12.38;7.20;;;;;;;3.36;78.56;101493.09;6147884;23;20189;-63
2022/01/10 14:05:18;;;;;;;13.20;6.63;;;;;;;3.35;78.85;101514.63;6148892;23;20565;-63
2022/01/10 14:08:21;;;;;;;19.08;9.27;;;;;;;3.32;79.38;101512.06;6148941;23;20024;-63
2022/01/10 14:11:29;;;;;;;;;;;;;;;3.29;79.28;101516.38;6147336;23;20031;-63
2022/01/10 14:14:32;;;;;;;17.55;8.57;;;;;;;3.34;78.83;101515.50;6148299;23;20017;-63
2022/01/10 14:17:36;;;;;;;;;;;;;;;3.56;78.71;101521.38;6148274;23;20470;-63
2022/01/10 14:20:39;;;;;;;14.07;8.38;;;;;;;3.71;78.67;101525.56;6149886;23;19914;-62
2022/01/10 14:23:45;;;;;;;14.77;7.68;;;;;;;3.83;78.39;101534.94;6149591;23;20463;-62
2022/01/10 14:26:50;;;;;;;16.77;8.45;;;;;;;3.89;77.69;101546.13;6151134;23;20420;-63
2022/01/10 14:29:53;;;;;;;24.08;11.80;;;;;;;3.64;77.58;101550.63;6149631;23;20032;-62
2022/01/10 14:32:58;;;;;;;17.50;9.00;;;;;;;3.45;78.72;101555.06;6149047;23;20029;-62
2022/01/10 14:36:01;;;;;;;17.65;8.00;;;;;;;3.62;78.49;101557.53;6150079;23;20032;-63
2022/01/10 14:39:04;;;;;;;18.50;9.55;;;;;;;3.37;78.26;101564.59;6150610;23;20057;-63
2022/01/10 14:42:08;;;;;;;14.02;7.25;;;;;;;3.49;78.84;101556.75;6151006;23;20025;-62
2022/01/10 14:45:11;;;;;;;;;;;;;;;3.71;78.34;101551.44;6150825;23;20496;-62
2022/01/10 14:48:15;;;;;;;18.73;7.80;;;;;;;3.60;77.49;101563.59;6149307;23;20189;-62
2022/01/10 14:51:18;;;;;;;15.95;6.55;;;;;;;3.64;77.89;101568.75;6149945;23;20349;-63
2022/01/10 14:54:21;;;;;;;;;;;;;;;3.64;78.07;101576.50;6150051;23;20028;-63
2022/01/10 14:57:25;;;;;;;14.25;6.95;;;;;;;3.59;78.85;101579.97;6145412;23;19919;-63